Chadstone Weather > Observations for 05/10/20

Select Day:



Observations
Time Temp Hum DP Wind Gust Dir Rain >9am Press
C % C kph kph mm hPa
00:00 13.6 95 12.8 5.0 12.2 S 0.9 1019.5
00:10 13.6 95 12.8 5.0 12.2 S 0.9 1019.9
00:20 13.6 95 12.8 5.0 12.2 S 0.9 1020.0
00:30 13.6 95 12.8 5.0 12.2 S 0.9 1020.2
00:40 13.6 95 12.8 5.0 12.2 S 0.9 1019.9
00:50 13.2 94 12.3 2.5 3.6 N 0.9 1020.4
01:00 13.1 93 12.0 5.5 19.4 WSW 0.9 1020.8
01:10 13.0 92 11.7 3.3 15.8 SW 0.9 1020.7
01:20 12.8 92 11.5 5.8 19.4 SW 0.9 1021.2
01:30 12.7 92 11.4 3.9 11.2 SSW 0.9 1021.0
01:40 12.6 92 11.3 5.6 13.3 SSW 0.9 1020.9
01:50 12.5 92 11.2 4.1 13.3 S 0.9 1020.2
02:00 12.3 93 11.2 7.3 20.9 SSE 0.9 1020.4
02:10 12.3 93 11.2 4.4 13.3 S 0.9 1019.6
02:20 12.1 93 11.0 7.7 17.3 S 0.9 1018.6
02:30 12.1 93 11.0 5.7 17.3 S 0.9 1019.6
02:40 12.0 94 11.1 3.6 11.2 SSE 0.9 1019.8
02:50 12.0 94 11.1 2.8 11.2 S 0.9 1019.1
03:00 12.0 94 11.1 5.3 12.2 SSW 0.9 1020.3
03:10 12.0 95 11.2 2.1 8.6 WSW 0.9 1020.5
03:20 11.9 96 11.3 4.3 19.4 S 0.9 1019.2
03:30 11.8 95 11.0 4.8 17.3 S 1.2 1019.9
03:40 11.8 95 11.0 3.1 11.2 S 1.2 1019.7
03:50 11.7 95 10.9 5.8 13.3 SSE 1.2 1019.5
04:00 11.7 95 10.9 2.0 13.3 SSE 1.2 1019.4
04:10 11.7 95 10.9 3.2 13.3 S 1.2 1019.4
04:20 11.8 95 11.0 1.8 8.6 SSE 1.2 1019.4
04:30 11.8 95 11.0 0.6 3.6 SSW 1.2 1019.4
04:40 11.8 95 11.0 1.1 8.6 S 1.2 1019.4
04:50 11.8 95 11.0 3.9 11.2 S 1.2 1019.3
05:00 11.7 94 10.8 4.8 15.8 SSE 1.2 1019.3
05:10 11.7 94 10.8 5.0 15.8 SSW 1.2 1019.8
05:20 11.5 93 10.4 3.2 15.8 SSW 1.2 1019.8
05:30 11.4 93 10.3 3.8 11.2 SSE 1.2 1020.3
05:40 11.3 93 10.2 1.8 6.1 S 1.5 1020.7
05:50 11.4 94 10.5 5.0 14.8 S 1.5 1020.9
06:00 11.4 94 10.5 8.6 13.3 S 1.5 1021.1
06:10 11.4 94 10.5 8.6 13.3 S 1.5 1021.3
06:20 11.4 94 10.5 8.6 13.3 S 1.5 1021.7
06:30 11.4 94 10.5 8.6 13.3 S 1.5 1022.9
06:40 11.4 94 10.5 8.6 13.3 S 1.5 1022.2
06:50 11.4 94 10.5 8.6 13.3 S 1.5 1023.2
07:00 10.7 97 10.2 2.5 5.0 E 3.3 1023.5
07:10 10.7 97 10.2 2.5 5.0 E 3.3 1023.0
07:20 10.7 97 10.2 2.5 5.0 E 3.3 1023.8
07:30 10.7 97 10.2 2.5 5.0 E 3.3 1023.6
07:40 10.7 97 10.2 2.5 5.0 E 3.3 1024.7
07:50 10.7 97 10.2 2.5 5.0 E 3.3 1024.8
08:00 10.7 97 10.2 2.5 5.0 E 3.3 1025.1
08:10 10.7 97 10.2 2.5 5.0 E 3.3 1025.0
08:20 10.7 97 10.2 2.5 5.0 E 3.3 1025.1
08:30 10.7 97 10.2 2.5 5.0 E 3.3 1024.1
08:40 10.7 97 10.2 2.5 5.0 E 3.3 1024.9
08:50 10.7 97 10.2 2.5 5.0 E 3.3 1025.1
09:00 10.7 97 10.2 2.5 5.0 E 3.3 1025.4
09:10 10.7 97 10.2 2.5 5.0 E 3.3 1026.1
09:20 10.7 97 10.2 2.5 5.0 E 3.3 1025.8
09:30 10.7 97 10.2 2.5 5.0 E 3.3 1026.1
09:40 10.7 97 10.2 2.5 5.0 E 3.3 1026.0
09:50 10.7 97 10.2 2.5 5.0 E 3.3 1026.2
10:00 10.7 97 10.2 2.5 5.0 E 0.0 1026.5
10:10 10.7 97 10.2 2.5 5.0 E 0.0 1026.5
10:20 10.7 97 10.2 2.5 5.0 E 0.0 1026.5
10:30 10.7 97 10.2 2.5 5.0 E 0.0 1026.6
10:40 10.7 97 10.2 2.5 5.0 E 0.0 1026.9
10:50 10.7 97 10.2 2.5 5.0 E 0.0 1026.7
11:00 10.7 97 10.2 2.5 5.0 E 0.0 1026.9
11:10 10.7 97 10.2 2.5 5.0 E 0.0 1027.1
11:20 10.7 97 10.2 2.5 5.0 E 0.0 1027.2
11:30 10.5 95 9.7 6.1 14.8 SE 8.4 1027.2
11:40 10.5 94 9.6 5.1 14.8 SSE 8.4 1028.0
11:50 10.5 94 9.6 4.4 18.4 SSW 8.4 1028.3
12:00 10.5 94 9.6 3.3 13.3 S 8.4 1028.2
12:10 10.6 93 9.5 3.4 11.2 SW 8.4 1028.2
12:20 10.7 93 9.6 4.5 11.2 S 8.4 1028.2
12:30 11.0 92 9.8 4.3 11.2 S 8.4 1028.4
12:40 11.4 91 10.0 5.7 19.4 SSW 8.4 1028.4
12:50 11.4 89 9.7 5.2 13.3 SSE 8.4 1028.5
13:00 11.7 88 9.8 4.2 13.3 SSW 8.4 1028.5
13:10 11.8 86 9.5 5.4 15.8 SW 8.4 1028.6
13:20 12.0 83 9.2 7.8 20.9 S 8.4 1028.5
13:30 12.1 83 9.3 6.1 22.0 SSW 8.4 1028.6
13:40 12.1 82 9.1 3.1 11.2 SSE 8.4 1028.7
13:50 12.2 82 9.2 5.2 14.8 S 8.4 1028.8
14:00 12.4 82 9.4 3.5 14.8 SSW 8.4 1029.0
14:10 12.0 81 8.8 3.5 9.7 SSW 8.4 1029.0
14:20 12.0 81 8.8 3.4 13.3 SW 8.4 1029.1
14:30 11.9 82 8.9 3.4 9.7 SSE 8.4 1029.3
14:40 12.0 81 8.8 3.8 11.2 S 8.4 1029.2
14:50 11.9 82 8.9 5.0 15.8 SSE 8.4 1029.4
15:00 11.8 83 9.0 3.6 15.8 S 8.4 1029.6
15:10 11.7 85 9.3 2.4 12.2 S 8.4 1029.4
15:20 11.6 86 9.3 5.3 14.8 SSW 8.4 1029.4
15:30 11.4 86 9.1 3.0 8.6 S 8.4 1029.6
15:40 11.4 87 9.3 2.9 9.7 S 8.4 1029.5
15:50 11.6 87 9.5 3.3 9.7 SSW 8.4 1029.2
16:00 11.9 86 9.6 2.8 9.7 SSE 8.4 1029.3
16:10 12.0 83 9.2 4.0 22.0 S 8.4 1029.3
16:20 11.9 83 9.1 8.8 20.9 SSE 8.4 1029.4
16:30 11.7 82 8.7 3.5 9.7 S 8.4 1029.4
16:40 11.7 83 8.9 3.7 15.8 SSW 8.4 1029.2
16:50 11.9 83 9.1 3.7 13.3 SSE 8.4 1029.5
17:00 11.8 83 9.0 3.6 15.8 SE 8.4 1029.9
17:10 11.6 83 8.8 2.9 13.3 SSW 8.4 1029.8
17:20 11.5 84 8.9 2.4 8.6 SSE 8.4 1030.0
17:30 11.7 85 9.3 1.5 14.8 S 8.4 1030.2
17:40 11.8 84 9.2 5.1 14.8 SSW 8.4 1030.4
17:50 11.7 83 8.9 3.4 9.7 S 8.4 1030.5
18:00 11.7 83 8.9 5.2 17.3 S 8.4 1030.5
18:10 11.8 83 9.0 3.8 14.8 S 8.4 1030.4
18:20 12.0 81 8.8 6.3 14.8 SSE 8.4 1030.6
18:30 12.0 81 8.8 5.4 15.8 SSE 8.7 1031.0
18:40 12.0 80 8.7 5.9 13.3 S 8.7 1031.2
18:50 12.1 79 8.6 6.2 12.2 SSE 8.7 1031.4
19:00 12.2 79 8.7 4.5 9.7 ESE 8.7 1031.3
19:10 12.1 79 8.6 5.8 12.2 SSE 8.7 1031.4
19:20 12.2 79 8.7 6.3 13.3 SSE 8.7 1031.6
19:30 12.1 79 8.6 6.3 13.3 SSE 8.7 1031.7
19:40 12.0 81 8.8 2.5 11.2 S 8.7 1031.7
19:50 11.7 82 8.7 4.2 11.2 SSE 8.7 1031.8
20:00 11.6 81 8.5 4.6 12.2 SSE 8.7 1031.8
20:10 11.4 82 8.4 4.4 8.6 SSE 8.7 1031.9
20:20 11.2 82 8.2 4.5 8.6 SSE 8.7 1032.2
20:30 11.1 82 8.1 3.0 7.2 SSE 8.7 1032.6
20:40 10.9 84 8.3 3.4 9.7 SSE 8.7 1032.5
20:50 10.8 84 8.2 5.0 11.2 S 8.7 1032.5
21:00 10.7 85 8.3 4.5 9.7 S 8.7 1032.4
21:10 10.6 85 8.2 4.8 12.2 SSE 8.7 1032.4
21:20 10.5 86 8.3 5.2 11.2 SSE 8.7 1032.6
21:30 10.4 86 8.2 4.4 12.2 SSE 8.7 1032.8
21:40 10.3 86 8.1 4.9 9.7 S 8.7 1032.8
21:50 10.3 87 8.2 3.6 9.7 SE 8.7 1032.7
22:00 10.2 87 8.1 3.3 7.2 SE 8.7 1032.9
22:10 10.1 87 8.0 3.3 6.1 SE 8.7 1032.8
22:20 9.9 89 8.2 1.3 5.0 SE 8.7 1032.9
22:30 9.8 89 8.1 1.7 5.0 SSE 8.7 1033.0
22:40 9.7 90 8.1 1.2 5.0 SSE 8.7 1033.2
22:50 9.6 90 8.0 0.2 3.6 SSE 8.7 1033.2
23:00 9.6 91 8.2 0.6 5.0 SE 8.7 1033.1
23:10 9.8 92 8.6 1.5 5.0 S 8.7 1033.1
23:20 10.0 92 8.8 2.0 8.6 SSE 8.7 1033.1
23:30 10.1 92 8.9 3.9 8.6 SSE 8.7 1033.2
23:40 10.2 93 9.1 2.7 8.6 S 8.7 1033.1
23:50 10.2 93 9.1 2.3 8.6 SSE 8.7 1033.0